• Join FlightAware (Why Join?)
  • Login
  • US Flag 
01:28AM EST


 

Airport Tracker/Info


-or-


 

Live Flight TrackerFlight Track Log ✈ ANA1185 ✈ 04-Dec-2013 ✈ RJTT / HND - RCSS / TSA

Flight Track Log - Related Links

Times and Time Zones

All times are in EST time to prevent confusion due to time zone crossing. See the ANA1185 flight status page for this flight to view local times or setup timezone preferences in your user account.

Time Position Orientation Groundspeed Altitude Reporting Facility
EST Latitude Longitude Course Direction KTS MPH feet Rate Location/Type
07:48PM 35.5280 139.8770 151° Southeast 173 199 3,400  Level FlightAware ADS-B
07:48PM 35.5180 139.8810 162° South 190 219 3,700 1,500 Climbing FlightAware ADS-B
07:48PM 35.5150 139.8820 165° South 197 227 3,800 960 Climbing FlightAware ADS-B
07:48PM 35.5080 139.8810 187° South 211 243 3,900 1,260 Climbing FlightAware ADS-B
07:48PM 35.5010 139.8780 199° South 220 253 4,100 1,980 Climbing FlightAware ADS-B
07:49PM 35.4840 139.8700 201° Southwest 236 272 4,700 2,580 Climbing FlightAware ADS-B
07:49PM 35.4710 139.8630 204° Southwest 237 273 5,400 3,360 Climbing FlightAware ADS-B
07:49PM 35.4540 139.8520 208° Southwest 236 272 6,400 3,660 Climbing FlightAware ADS-B
07:49PM 35.4380 139.8390 214° Southwest 228 262 7,600 2,880 Climbing FlightAware ADS-B
07:50PM 35.4230 139.8280 211° Southwest 245 282 8,100 2,100 Climbing FlightAware ADS-B
07:50PM 35.3970 139.8090 211° Southwest 261 300 9,100 2,400 Climbing FlightAware ADS-B
07:51PM 35.3590 139.7800 212° Southwest 281 323 10,600 1,860 Climbing FlightAware ADS-B
07:51PM 35.3250 139.7550 211° Southwest 313 360 11,200 1,860 Climbing FlightAware ADS-B
07:52PM 35.2970 139.7260 220° Southwest 317 365 12,300 2,760 Climbing FlightAware ADS-B
07:52PM 35.2610 139.6780 227° Southwest 326 375 14,000 2,820 Climbing FlightAware ADS-B
07:53PM 35.2230 139.6280 227° Southwest 333 383 15,700 2,700 Climbing FlightAware ADS-B
07:53PM 35.1920 139.5870 227° Southwest 338 389 17,000 2,580 Climbing FlightAware ADS-B
07:56PM 35.0860 139.3454 242° Southwest  Level Estimated
07:57PM 35.0376 139.2359 242° Southwest  Level Estimated
07:58PM 34.9891 139.1264 242° Southwest  Level Estimated
07:59PM 34.9406 139.0171 242° Southwest  Level Estimated
08:00PM 34.8919 138.9079 242° Southwest  Level Estimated
08:01PM 34.8432 138.7988 241° Southwest  Level Estimated
08:02PM 34.7943 138.6899 241° Southwest  Level Estimated
08:03PM 34.7454 138.5811 241° Southwest  Level Estimated
08:04PM 34.6964 138.4724 241° Southwest  Level Estimated
08:05PM 34.6472 138.3638 241° Southwest  Level Estimated
08:06PM 34.5980 138.2554 241° Southwest  Level Estimated
08:07PM 34.5487 138.1471 241° Southwest  Level Estimated
08:08PM 34.4992 138.0389 241° Southwest  Level Estimated
08:09PM 34.4497 137.9309 241° Southwest  Level Estimated
08:10PM 34.4001 137.8230 241° Southwest  Level Estimated
08:11PM 34.3504 137.7152 241° Southwest  Level Estimated
08:12PM 34.3006 137.6075 241° Southwest  Level Estimated
08:13PM 34.2507 137.5000 241° Southwest  Level Estimated
08:14PM 34.2007 137.3926 241° Southwest  Level Estimated
08:15PM 34.1506 137.2853 241° Southwest  Level Estimated
08:16PM 34.1004 137.1782 241° Southwest  Level Estimated
08:17PM 34.0502 137.0712 240° Southwest  Level Estimated
08:18PM 33.9998 136.9643 240° Southwest  Level Estimated
08:19PM 33.9494 136.8575 240° Southwest  Level Estimated
08:20PM 33.8988 136.7509 240° Southwest  Level Estimated
08:21PM 33.8482 136.6443 240° Southwest  Level Estimated
08:22PM 33.7974 136.5379 240° Southwest  Level Estimated
08:23PM 33.7466 136.4317 240° Southwest  Level Estimated
08:24PM 33.6957 136.3256 240° Southwest  Level Estimated
08:25PM 33.6447 136.2195 240° Southwest  Level Estimated
08:26PM 33.5936 136.1137 240° Southwest  Level Estimated
08:27PM 33.5424 136.0079 240° Southwest  Level Estimated
08:28PM 33.4912 135.9023 240° Southwest  Level Estimated
08:29PM 33.4398 135.7968 240° Southwest  Level Estimated
08:30PM 33.3884 135.6914 240° Southwest  Level Estimated
08:31PM 33.3368 135.5861 240° Southwest  Level Estimated
08:32PM 33.2852 135.4810 240° Southwest  Level Estimated
08:33PM 33.2335 135.3760 240° Southwest  Level Estimated
08:34PM 33.1817 135.2711 239° Southwest  Level Estimated
08:35PM 33.1298 135.1664 239° Southwest  Level Estimated
08:36PM 33.0778 135.0617 239° Southwest  Level Estimated
08:37PM 33.0257 134.9572 239° Southwest  Level Estimated
08:38PM 32.9736 134.8528 239° Southwest  Level Estimated
08:39PM 32.9213 134.7485 239° Southwest  Level Estimated
08:40PM 32.8690 134.6444 239° Southwest  Level Estimated
08:41PM 32.8166 134.5404 239° Southwest  Level Estimated
08:42PM 32.7641 134.4365 239° Southwest  Level Estimated
08:43PM 32.7115 134.3327 239° Southwest  Level Estimated
08:44PM 32.6588 134.2291 239° Southwest  Level Estimated
08:45PM 32.6060 134.1255 239° Southwest  Level Estimated
08:46PM 32.5532 134.0221 239° Southwest  Level Estimated
08:47PM 32.5003 133.9188 239° Southwest  Level Estimated
08:48PM 32.4473 133.8157 239° Southwest  Level Estimated
08:49PM 32.3942 133.7126 239° Southwest  Level Estimated
08:50PM 32.3410 133.6097 239° Southwest  Level Estimated
08:51PM 32.2877 133.5069 239° Southwest  Level Estimated
08:52PM 32.2344 133.4042 238° Southwest  Level Estimated
08:53PM 32.1810 133.3017 238° Southwest  Level Estimated
08:54PM 32.1274 133.1992 238° Southwest  Level Estimated
08:55PM 32.0738 133.0969 238° Southwest  Level Estimated
08:56PM 32.0202 132.9947 238° Southwest  Level Estimated
08:57PM 31.9664 132.8926 238° Southwest  Level Estimated
08:58PM 31.9126 132.7907 238° Southwest  Level Estimated
08:59PM 31.8587 132.6888 238° Southwest  Level Estimated
09:00PM 31.8046 132.5871 238° Southwest  Level Estimated
09:01PM 31.7506 132.4855 238° Southwest  Level Estimated
09:02PM 31.6964 132.3840 238° Southwest  Level Estimated
09:03PM 31.6422 132.2827 238° Southwest  Level Estimated
09:04PM 31.5879 132.1814 238° Southwest  Level Estimated
09:05PM 31.5334 132.0803 238° Southwest  Level Estimated
09:06PM 31.4790 131.9793 238° Southwest  Level Estimated
09:07PM 31.4244 131.8784 238° Southwest  Level Estimated
09:08PM 31.3698 131.7776 238° Southwest  Level Estimated
09:09PM 31.3151 131.6770 238° Southwest  Level Estimated
09:10PM 31.2603 131.5764 237° Southwest  Level Estimated
09:11PM 31.2054 131.4760 237° Southwest  Level Estimated
09:12PM 31.1504 131.3757 237° Southwest  Level Estimated
09:13PM 31.0954 131.2755 237° Southwest  Level Estimated
09:14PM 31.0403 131.1754 237° Southwest  Level Estimated
09:15PM 30.9851 131.0755 237° Southwest  Level Estimated
09:16PM 30.9298 130.9756 237° Southwest  Level Estimated
09:17PM 30.8745 130.8759 237° Southwest  Level Estimated
09:18PM 30.8191 130.7763 237° Southwest  Level Estimated
09:19PM 30.7636 130.6768 237° Southwest  Level Estimated
09:20PM 30.7080 130.5774 237° Southwest  Level Estimated
09:21PM 30.6524 130.4781 237° Southwest  Level Estimated
09:22PM 30.5966 130.3790 237° Southwest  Level Estimated
09:23PM 30.5409 130.2799 237° Southwest  Level Estimated
09:24PM 30.4850 130.1810 237° Southwest  Level Estimated
09:25PM 30.4291 130.0822 237° Southwest  Level Estimated
09:26PM 30.3730 129.9835 237° Southwest  Level Estimated
09:27PM 30.3169 129.8849 237° Southwest  Level Estimated
09:28PM 30.2608 129.7864 237° Southwest  Level Estimated
09:29PM 30.2045 129.6881 237° Southwest  Level Estimated
09:30PM 30.1482 129.5898 236° Southwest  Level Estimated
09:31PM 30.0918 129.4917 236° Southwest  Level Estimated
09:32PM 30.0354 129.3936 236° Southwest  Level Estimated
09:33PM 29.9788 129.2957 236° Southwest  Level Estimated
09:34PM 29.9222 129.1979 236° Southwest  Level Estimated
09:35PM 29.8656 129.1002 236° Southwest  Level Estimated
09:36PM 29.8088 129.0027 236° Southwest  Level Estimated
09:37PM 29.7520 128.9052 236° Southwest  Level Estimated
09:38PM 29.6951 128.8078 236° Southwest  Level Estimated
09:39PM 29.6381 128.7106 236° Southwest  Level Estimated
09:40PM 29.5811 128.6134 236° Southwest  Level Estimated
09:41PM 29.5240 128.5164 236° Southwest  Level Estimated
09:42PM 29.4668 128.4195 236° Southwest  Level Estimated
09:43PM 29.4096 128.3227 236° Southwest  Level Estimated
09:44PM 29.3523 128.2260 236° Southwest  Level Estimated
09:45PM 29.2949 128.1294 236° Southwest  Level Estimated
09:46PM 29.2375 128.0329 236° Southwest  Level Estimated
09:47PM 29.1799 127.9365 236° Southwest  Level Estimated
09:48PM 29.1224 127.8403 236° Southwest  Level Estimated
09:49PM 29.0647 127.7441 236° Southwest  Level Estimated
09:50PM 29.0070 127.6481 236° Southwest  Level Estimated
09:51PM 28.9492 127.5521 235° Southwest  Level Estimated
09:52PM 28.8913 127.4563 235° Southwest  Level Estimated
09:53PM 28.8334 127.3605 235° Southwest  Level Estimated
09:54PM 28.7754 127.2649 235° Southwest  Level Estimated
09:55PM 28.7173 127.1694 235° Southwest  Level Estimated
09:56PM 28.6592 127.0740 235° Southwest  Level Estimated
09:57PM 28.6010 126.9787 235° Southwest  Level Estimated
09:58PM 28.5427 126.8835 235° Southwest  Level Estimated
09:59PM 28.4844 126.7884 235° Southwest  Level Estimated
10:00PM 28.4260 126.6934 235° Southwest  Level Estimated
10:01PM 28.3675 126.5985 235° Southwest  Level Estimated
10:02PM 28.3090 126.5038 235° Southwest  Level Estimated
10:03PM 28.2504 126.4091 235° Southwest  Level Estimated
10:04PM 28.1917 126.3145 235° Southwest  Level Estimated
10:05PM 28.1330 126.2200 235° Southwest  Level Estimated
10:06PM 28.0742 126.1257 235° Southwest  Level Estimated
10:07PM 28.0153 126.0314 235° Southwest  Level Estimated
10:08PM 27.9564 125.9372 235° Southwest  Level Estimated
10:09PM 27.8974 125.8432 235° Southwest  Level Estimated
10:10PM 27.8384 125.7492 235° Southwest  Level Estimated
10:11PM 27.7793 125.6554 235° Southwest  Level Estimated
10:12PM 27.7201 125.5616 235° Southwest  Level Estimated
10:13PM 27.6609 125.4680 234° Southwest  Level Estimated
10:14PM 27.6016 125.3745 234° Southwest  Level Estimated
10:15PM 27.5422 125.2810 234° Southwest  Level Estimated
10:16PM 27.4828 125.1877 234° Southwest  Level Estimated
10:17PM 27.4233 125.0944 234° Southwest  Level Estimated
10:18PM 27.3637 125.0013 234° Southwest  Level Estimated
10:19PM 27.3041 124.9082 234° Southwest  Level Estimated
10:20PM 27.2444 124.8153 234° Southwest  Level Estimated
10:21PM 27.1847 124.7225 234° Southwest  Level Estimated
10:22PM 27.1249 124.6297 234° Southwest  Level Estimated
10:23PM 27.0651 124.5371 234° Southwest  Level Estimated
10:24PM 27.0051 124.4445 234° Southwest  Level Estimated
10:25PM 26.9452 124.3521 234° Southwest  Level Estimated
10:26PM 26.8851 124.2598 234° Southwest  Level Estimated
10:27PM 26.8250 124.1675 234° Southwest  Level Estimated
10:28PM 26.7649 124.0753 234° Southwest  Level Estimated
10:29PM 26.7046 123.9833 234° Southwest  Level Estimated
10:30PM 26.6444 123.8913 234° Southwest  Level Estimated
10:31PM 26.5840 123.7995 234° Southwest  Level Estimated
10:32PM 26.5236 123.7077 234° Southwest  Level Estimated
10:33PM 26.4632 123.6161 234° Southwest  Level Estimated
10:34PM 26.4027 123.5245 234° Southwest  Level Estimated
10:35PM 26.3421 123.4330 234° Southwest  Level Estimated
10:36PM 26.2815 123.3416 234° Southwest  Level Estimated
10:37PM 26.2208 123.2504 233° Southwest  Level Estimated
10:38PM 26.1601 123.1592 233° Southwest  Level Estimated
10:39PM 26.0993 123.0681 233° Southwest  Level Estimated
10:40PM 26.0384 122.9771 233° Southwest  Level Estimated
10:41PM 25.9775 122.8862 233° Southwest  Level Estimated
10:42PM 25.9165 122.7954 233° Southwest  Level Estimated
10:43PM 25.8555 122.7046 233° Southwest  Level Estimated
10:44PM 25.7944 122.6140 233° Southwest  Level Estimated
10:45PM 25.7333 122.5235 233° Southwest  Level Estimated
10:46PM 25.6721 122.4331 233° Southwest  Level Estimated
10:47PM 25.6108 122.3427 233° Southwest  Level Estimated
10:48PM 25.5495 122.2525 233° Southwest  Level Estimated
10:49PM 25.4881 122.1623 233° Southwest  Level Estimated
10:50PM 25.4267 122.0722 233° Southwest  Level Estimated
10:51PM 25.3653 121.9823 233° Southwest  Level Estimated
10:52PM 25.3037 121.8924 233° Southwest  Level Estimated
10:53PM 25.2421 121.8026 233° Southwest  Level Estimated
10:54PM 25.1805 121.7129 233° Southwest  Level Estimated
10:55PM 25.1188 121.6233 233° Southwest  Level Estimated
10:56PM 25.0694 121.5517 233° Southwest  Level Estimated
10:57PM 25.0694 121.5517 326° Northwest  Level Estimated
10:58PM 25.0694 121.5517 326° Northwest  Level Estimated
10:59PM 25.0694 121.5517 326° Northwest  Level Estimated
11:00PM 25.0694 121.5517 326° Northwest  Level Estimated
11:01PM 25.0694 121.5517 326° Northwest  Level Estimated
11:02PM 25.0694 121.5517 326° Northwest  Level Estimated
11:03PM 25.0694 121.5517 326° Northwest  Level Estimated
11:04PM 25.0694 121.5517 326° Northwest  Level Estimated
11:05PM 25.0694 121.5517 326° Northwest  Level Estimated